Pomeroy, Washington
Current Conditions -  °F | °C
As of 12:56 AM on Thursday 23 Oct 2014 (Local Time) from KLWS Reporting Station
Overcast Overcast  
Wind Chill: 58°   Ceiling: 8500
Heat Index: 58°   Visibility: 10mi
Dew Point: 44°   Wind: 8mph
Humidity: 60%   Direction: 50°NE
Pressure: 29.81"   Gusts: NA
Location:  46.47°N, 117.6°W
Report Text: KLWS 230756Z AUTO 05007KT 10SM BKN085 OVC110 14/07 A2981 RMK AO2 SLP091 T01440067 402060061
Loading
Personal Weather Stations






























Interactive Weather Map
Tropical Storm Tracking
New forecast layout! Learn more

10-Day Weather Forecast

Advertisements
Track Severe Weather on mobile